Terminal Aerodrome Forecast
Issued by NWS Duluth, MN

Home | Current Version | Previous Version | Text Only | Print | Product List | Glossary On
Versions: 1 2 3 4 5 6 7 8 9 10 11 12 13 14 15 16 17 18 19 20 21 22 23 24 25 26 27 28 29
000
FTUS43 KDLH 180225 AAA
TAFINL
TAF AMD
KINL 180225Z 1802/1824 22005KT 3SM BR OVC006
      TEMPO 1803/1806 2SM BR SCT006 OVC012
     FM180600 19006KT 1SM BR BKN008
     FM180900 20007KT 3SM BR OVC013
     FM181300 21007KT P6SM OVC013
     FM182000 25008KT 2SM -SN BR OVC008=

USA.gov is the U.S. government's official web portal to all federal, state and local government web resources and services.